Time;durP1;ratioP1;P1;durP2;ratioP2;P2;SDS_P1;SDS_P2;PMS_P1;PMS_P2;Temp;Humidity;BMP_temperature;BMP_pressure;BME280_temperature;BME280_humidity;BME280_pressure;Samples;Min_cycle;Max_cycle;Signal;HPM_P1;HPM_P2
2023/04/08 00:01:27;;;;;;;9.90;7.18;;;;;;;;;;5057411;28;20049;-95
2023/04/08 00:03:54;;;;;;;11.50;7.78;;;;;;;;;;5055567;28;20048;-96
2023/04/08 00:06:22;;;;;;;10.90;7.68;;;;;;;;;;5062565;28;20088;-92
2023/04/08 00:08:49;;;;;;;11.02;8.10;;;;;;;;;;5069796;28;20147;-95
2023/04/08 00:11:17;;;;;;;10.52;7.43;;;;;;;;;;5047318;28;20063;-94
2023/04/08 00:13:44;;;;;;;9.18;7.32;;;;;;;;;;5058722;28;20051;-95
2023/04/08 00:16:12;;;;;;;8.73;7.13;;;;;;;;;;5039427;28;20053;-94
2023/04/08 00:18:40;;;;;;;11.77;7.38;;;;;;;;;;5042847;28;20041;-95
2023/04/08 00:21:07;;;;;;;11.10;7.72;;;;;;;;;;5051166;28;20553;-94
2023/04/08 00:23:34;;;;;;;12.82;7.97;;;;;;;;;;5038543;28;20076;-94
2023/04/08 00:26:02;;;;;;;11.32;8.02;;;;;;;;;;5058085;28;20160;-95
2023/04/08 00:28:29;;;;;;;10.50;6.63;;;;;;;;;;5059061;28;20132;-95
2023/04/08 00:30:57;;;;;;;11.75;8.20;;;;;;;;;;5057863;28;20049;-94
2023/04/08 00:33:24;;;;;;;11.20;8.10;;;;;;;;;;5058370;28;20059;-95
2023/04/08 00:35:52;;;;;;;10.90;8.07;;;;;;;;;;5042262;28;20139;-96
2023/04/08 00:38:19;;;;;;;9.23;7.90;;;;;;;;;;5039313;28;20073;-95
2023/04/08 00:40:47;;;;;;;12.82;7.72;;;;;;;;;;5054907;28;20045;-95
2023/04/08 00:43:15;;;;;;;10.57;7.78;;;;;;;;;;5059532;28;20048;-95
2023/04/08 00:45:42;;;;;;;13.35;7.70;;;;;;;;;;5059058;28;20055;-95
2023/04/08 00:48:11;;;;;;;10.93;8.07;;;;;;;;;;5058806;28;20102;-95
2023/04/08 00:50:38;;;;;;;10.82;8.35;;;;;;;;;;5058181;28;20045;-94
2023/04/08 00:53:06;;;;;;;11.57;8.00;;;;;;;;;;5058173;28;20596;-95
2023/04/08 00:55:33;;;;;;;11.88;7.95;;;;;;;;;;5058183;28;20052;-96
2023/04/08 00:58:00;;;;;;;10.20;8.00;;;;;;;;;;5057976;28;20182;-96
2023/04/08 01:00:29;;;;;;;16.88;8.75;;;;;;;;;;5059286;28;20068;-95
2023/04/08 01:03:07;;;;;;;10.57;8.18;;;;;;;;;;5059083;28;20048;-96
2023/04/08 01:05:54;;;;;;;11.80;8.40;;;;;;;;;;5059132;28;20072;-95
2023/04/08 01:08:22;;;;;;;12.30;8.88;;;;;;;;;;5074415;28;20120;-94
2023/04/08 01:10:54;;;;;;;12.68;9.15;;;;;;;;;;5069854;28;20097;-95
2023/04/08 01:13:23;;;;;;;13.20;9.98;;;;;;;;;;5082988;28;20048;-94
2023/04/08 01:15:51;;;;;;;14.82;9.15;;;;;;;;;;5064099;28;20044;-95
2023/04/08 01:18:22;;;;;;;12.73;10.35;;;;;;;;;;5066418;28;20127;-94
2023/04/08 01:20:58;;;;;;;13.63;9.35;;;;;;;;;;5094485;28;20078;-94
2023/04/08 01:23:37;;;;;;;11.88;10.10;;;;;;;;;;5070287;28;20060;-94
2023/04/08 01:26:05;;;;;;;13.25;9.38;;;;;;;;;;5062458;28;20063;-95
2023/04/08 01:28:33;;;;;;;12.30;9.05;;;;;;;;;;5063817;28;20048;-94
2023/04/08 01:31:02;;;;;;;13.48;9.73;;;;;;;;;;5062503;28;20080;-94
2023/04/08 01:33:31;;;;;;;13.38;9.05;;;;;;;;;;5061755;28;20048;-94
2023/04/08 01:35:59;;;;;;;12.15;9.68;;;;;;;;;;5060690;28;20052;-95
2023/04/08 01:38:27;;;;;;;13.43;10.18;;;;;;;;;;5059358;28;20102;-95
2023/04/08 01:40:55;;;;;;;17.27;10.65;;;;;;;;;;5051502;28;20127;-94
2023/04/08 01:43:24;;;;;;;11.65;9.88;;;;;;;;;;5063259;28;20147;-95
2023/04/08 01:45:56;;;;;;;17.10;11.27;;;;;;;;;;5064872;28;20048;-94
2023/04/08 01:48:25;;;;;;;14.53;10.37;;;;;;;;;;5062397;28;20045;-95
2023/04/08 01:50:53;;;;;;;13.52;9.90;;;;;;;;;;5063895;28;20303;-95
2023/04/08 01:53:20;;;;;;;15.05;10.65;;;;;;;;;;5065423;28;20139;-95
2023/04/08 01:55:51;;;;;;;14.27;10.88;;;;;;;;;;5065998;28;20048;-95
2023/04/08 01:58:20;;;;;;;15.10;11.38;;;;;;;;;;5061966;28;20060;-95
2023/04/08 02:00:51;;;;;;;15.07;11.77;;;;;;;;;;5059153;28;20076;-95
2023/04/08 02:03:20;;;;;;;14.27;11.00;;;;;;;;;;5058667;28;20072;-95
2023/04/08 02:05:47;;;;;;;14.63;10.88;;;;;;;;;;5061166;28;20044;-94
2023/04/08 02:08:15;;;;;;;12.50;10.82;;;;;;;;;;5063003;28;20083;-95
2023/04/08 02:10:42;;;;;;;16.73;11.65;;;;;;;;;;5060992;28;20045;-95
2023/04/08 02:13:10;;;;;;;13.98;11.48;;;;;;;;;;5063082;28;20120;-94
2023/04/08 02:15:38;;;;;;;14.10;10.30;;;;;;;;;;5065397;28;20048;-94
2023/04/08 02:18:10;;;;;;;13.32;10.60;;;;;;;;;;5060974;28;20054;-94
2023/04/08 02:20:40;;;;;;;12.65;10.85;;;;;;;;;;5053958;28;20493;-95
2023/04/08 02:23:15;;;;;;;14.38;11.18;;;;;;;;;;5063446;28;20123;-94
2023/04/08 02:25:44;;;;;;;16.45;11.55;;;;;;;;;;5058145;28;20057;-94
2023/04/08 02:28:11;;;;;;;14.13;11.57;;;;;;;;;;5048707;28;20056;-94
2023/04/08 02:30:44;;;;;;;15.00;12.00;;;;;;;;;;5076589;28;20060;-93
2023/04/08 02:33:21;;;;;;;17.73;12.05;;;;;;;;;;5090272;28;20051;-94
2023/04/08 02:35:54;;;;;;;16.17;12.23;;;;;;;;;;5081205;28;20025;-93
2023/04/08 02:38:22;;;;;;;16.45;12.07;;;;;;;;;;5070881;28;20390;-94
2023/04/08 02:40:50;;;;;;;18.45;12.88;;;;;;;;;;5071581;28;20048;-94
2023/04/08 02:43:18;;;;;;;20.13;14.13;;;;;;;;;;5070524;28;20056;-94
2023/04/08 02:45:46;;;;;;;18.52;13.88;;;;;;;;;;5070170;28;20072;-94
2023/04/08 02:48:14;;;;;;;19.73;13.35;;;;;;;;;;5071378;28;20072;-94
2023/04/08 02:50:43;;;;;;;16.85;13.18;;;;;;;;;;5070682;28;20060;-94
2023/04/08 02:53:12;;;;;;;19.77;13.05;;;;;;;;;;5073158;28;20052;-94
2023/04/08 02:55:44;;;;;;;17.38;12.70;;;;;;;;;;5077562;28;20053;-93
2023/04/08 02:58:11;;;;;;;18.27;14.13;;;;;;;;;;5042274;28;20136;-94
2023/04/08 03:00:38;;;;;;;22.10;14.80;;;;;;;;;;5045928;28;20045;-93
2023/04/08 03:03:06;;;;;;;19.88;14.35;;;;;;;;;;5060525;28;20091;-93
2023/04/08 03:05:33;;;;;;;20.20;14.98;;;;;;;;;;5058654;28;20117;-93
2023/04/08 03:08:00;;;;;;;21.60;15.48;;;;;;;;;;5061439;28;20135;-94
2023/04/08 03:10:28;;;;;;;23.83;15.57;;;;;;;;;;5072518;28;20048;-94
2023/04/08 03:13:05;;;;;;;22.48;16.38;;;;;;;;;;5071582;28;20048;-92
2023/04/08 03:15:37;;;;;;;23.23;15.73;;;;;;;;;;5065249;28;20045;-92
2023/04/08 03:18:04;;;;;;;18.73;14.65;;;;;;;;;;5064126;28;20053;-91
2023/04/08 03:20:32;;;;;;;22.75;16.73;;;;;;;;;;5066018;28;20139;-92
2023/04/08 03:22:59;;;;;;;22.50;16.02;;;;;;;;;;5069714;28;20083;-92
2023/04/08 03:25:28;;;;;;;21.98;15.15;;;;;;;;;;5061973;28;20139;-93
2023/04/08 03:27:55;;;;;;;21.33;15.88;;;;;;;;;;5059015;28;20056;-92
2023/04/08 03:30:22;;;;;;;21.45;15.98;;;;;;;;;;5059892;28;20053;-92
2023/04/08 03:32:50;;;;;;;24.20;15.80;;;;;;;;;;5058971;28;20118;-93
2023/04/08 03:35:17;;;;;;;21.77;15.18;;;;;;;;;;5060531;28;20114;-92
2023/04/08 03:37:45;;;;;;;23.40;15.45;;;;;;;;;;5061859;28;20071;-92
2023/04/08 03:40:13;;;;;;;24.45;16.25;;;;;;;;;;5060581;28;20106;-92
2023/04/08 03:42:40;;;;;;;23.55;17.00;;;;;;;;;;5061366;28;20064;-92
2023/04/08 03:45:08;;;;;;;21.80;16.30;;;;;;;;;;5068833;28;20052;-92
2023/04/08 03:47:35;;;;;;;24.92;16.52;;;;;;;;;;5074935;28;20044;-92
2023/04/08 03:50:03;;;;;;;25.40;17.20;;;;;;;;;;5082510;28;20039;-92
2023/04/08 03:52:30;;;;;;;27.08;17.25;;;;;;;;;;5044661;28;20049;-93
2023/04/08 03:54:57;;;;;;;22.77;16.27;;;;;;;;;;5043781;28;20459;-91
2023/04/08 03:57:27;;;;;;;24.80;16.77;;;;;;;;;;5063956;28;20048;-92
2023/04/08 03:59:55;;;;;;;25.75;17.17;;;;;;;;;;5063837;28;20057;-91
2023/04/08 04:02:22;;;;;;;25.98;17.55;;;;;;;;;;5065301;28;20044;-92
2023/04/08 04:04:50;;;;;;;28.70;17.80;;;;;;;;;;5064841;28;20049;-91
2023/04/08 04:07:17;;;;;;;31.20;19.00;;;;;;;;;;5064988;28;20082;-92
2023/04/08 04:09:45;;;;;;;25.23;18.58;;;;;;;;;;5061514;28;20485;-93
2023/04/08 04:12:12;;;;;;;28.30;19.48;;;;;;;;;;5060561;28;20072;-93
2023/04/08 04:14:39;;;;;;;28.92;19.90;;;;;;;;;;5061648;28;20045;-92
2023/04/08 04:17:06;;;;;;;28.85;19.50;;;;;;;;;;5045559;28;20147;-93
2023/04/08 04:19:34;;;;;;;25.42;18.10;;;;;;;;;;5062237;28;20060;-93
2023/04/08 04:22:01;;;;;;;27.77;18.27;;;;;;;;;;5061037;28;20048;-93
2023/04/08 04:24:28;;;;;;;27.52;18.08;;;;;;;;;;5063631;28;20133;-93
2023/04/08 04:26:56;;;;;;;27.23;18.35;;;;;;;;;;5058464;28;20040;-92
2023/04/08 04:29:24;;;;;;;28.25;18.27;;;;;;;;;;5063452;28;20250;-92
2023/04/08 04:31:51;;;;;;;30.08;18.92;;;;;;;;;;5064800;28;20112;-93
2023/04/08 04:34:18;;;;;;;26.95;18.35;;;;;;;;;;5067439;28;20072;-93
2023/04/08 04:36:47;;;;;;;31.38;19.77;;;;;;;;;;5076990;28;20079;-93
2023/04/08 04:39:17;;;;;;;25.38;16.63;;;;;;;;;;5078575;28;20053;-92
2023/04/08 04:41:47;;;;;;;22.30;16.38;;;;;;;;;;5061092;28;20057;-92
2023/04/08 04:44:19;;;;;;;27.23;17.30;;;;;;;;;;5075549;28;20058;-93
2023/04/08 04:46:48;;;;;;;26.25;17.85;;;;;;;;;;5074350;28;20082;-93
2023/04/08 04:49:15;;;;;;;25.95;17.95;;;;;;;;;;5072960;28;20536;-92
2023/04/08 04:51:46;;;;;;;23.73;16.98;;;;;;;;;;5068499;28;20044;-94
2023/04/08 04:54:13;;;;;;;24.67;16.88;;;;;;;;;;5046032;28;20079;-94
2023/04/08 04:56:42;;;;;;;21.60;15.48;;;;;;;;;;5056291;28;20113;-94
2023/04/08 04:59:09;;;;;;;23.38;16.42;;;;;;;;;;5064085;28;20059;-93
2023/04/08 05:01:39;;;;;;;20.98;15.43;;;;;;;;;;5066132;28;20100;-93
2023/04/08 05:04:07;;;;;;;26.40;17.55;;;;;;;;;;5067934;28;20078;-93
2023/04/08 05:06:34;;;;;;;24.90;16.80;;;;;;;;;;5063464;28;20056;-94
2023/04/08 05:09:02;;;;;;;31.10;18.67;;;;;;;;;;5065309;28;20048;-93
2023/04/08 05:11:30;;;;;;;25.95;17.27;;;;;;;;;;5064283;28;20094;-94
2023/04/08 05:13:57;;;;;;;25.42;16.60;;;;;;;;;;5064254;28;20488;-93
2023/04/08 05:16:24;;;;;;;22.38;15.23;;;;;;;;;;5063041;28;20477;-92
2023/04/08 05:18:52;;;;;;;18.83;14.02;;;;;;;;;;5066822;28;20116;-93
2023/04/08 05:21:22;;;;;;;24.52;16.45;;;;;;;;;;5059451;28;20048;-93
2023/04/08 05:23:51;;;;;;;23.42;15.65;;;;;;;;;;5045227;28;20052;-94
2023/04/08 05:26:20;;;;;;;25.70;16.55;;;;;;;;;;5049752;28;20063;-93
2023/04/08 05:28:48;;;;;;;24.77;16.67;;;;;;;;;;5061267;28;20044;-93
2023/04/08 05:31:16;;;;;;;21.23;15.20;;;;;;;;;;5062952;28;20127;-93
2023/04/08 05:33:47;;;;;;;19.60;14.02;;;;;;;;;;5076500;28;20037;-95
2023/04/08 05:36:15;;;;;;;22.65;15.70;;;;;;;;;;5095080;28;20075;-93
2023/04/08 05:38:43;;;;;;;25.05;16.55;;;;;;;;;;5073322;28;20068;-94
2023/04/08 05:41:10;;;;;;;89.20;57.60;;;;;;;;;;5071282;28;20040;-95
2023/04/08 05:43:38;;;;;;;74.30;53.67;;;;;;;;;;5075116;28;20460;-94
2023/04/08 05:46:09;;;;;;;19.35;14.55;;;;;;;;;;5064256;28;20064;-93
2023/04/08 05:48:36;;;;;;;23.42;15.93;;;;;;;;;;5065355;28;20052;-93
2023/04/08 05:51:04;;;;;;;17.63;12.07;;;;;;;;;;5071082;28;20049;-93
2023/04/08 05:53:31;;;;;;;25.13;19.80;;;;;;;;;;5065985;28;20071;-92
2023/04/08 05:55:58;;;;;;;16.52;11.38;;;;;;;;;;5061763;28;20071;-92
2023/04/08 05:58:26;;;;;;;17.88;11.40;;;;;;;;;;5065445;28;20086;-92
2023/04/08 06:00:54;;;;;;;16.27;11.65;;;;;;;;;;5067257;28;20071;-91
2023/04/08 06:03:21;;;;;;;16.98;11.35;;;;;;;;;;5042031;28;20954;-91
2023/04/08 06:05:49;;;;;;;17.10;11.85;;;;;;;;;;5055629;28;20058;-91
2023/04/08 06:08:16;;;;;;;14.68;10.00;;;;;;;;;;5056728;28;20059;-91
2023/04/08 06:10:50;;;;;;;15.40;10.65;;;;;;;;;;5057844;28;20060;-91
2023/04/08 06:13:19;;;;;;;14.02;9.70;;;;;;;;;;5039937;28;20063;-92
2023/04/08 06:15:50;;;;;;;16.05;14.18;;;;;;;;;;5054862;28;20681;-91
2023/04/08 06:18:17;;;;;;;13.88;9.27;;;;;;;;;;5066169;28;20107;-90
2023/04/08 06:20:44;;;;;;;14.38;11.77;;;;;;;;;;5055284;28;20075;-91
2023/04/08 06:23:12;;;;;;;31.20;23.88;;;;;;;;;;5056135;28;20056;-91
2023/04/08 06:25:39;;;;;;;28.58;23.80;;;;;;;;;;5057795;28;20049;-91
2023/04/08 06:28:08;;;;;;;17.05;12.55;;;;;;;;;;5062898;28;20052;-91
2023/04/08 06:30:35;;;;;;;13.80;9.68;;;;;;;;;;5064885;28;20589;-91
2023/04/08 06:33:02;;;;;;;25.77;19.30;;;;;;;;;;5065766;28;20472;-92
2023/04/08 06:35:30;;;;;;;15.55;10.18;;;;;;;;;;5050766;28;20060;-90
2023/04/08 06:37:59;;;;;;;15.77;11.65;;;;;;;;;;5059155;28;20106;-91
2023/04/08 06:40:26;;;;;;;13.18;10.35;;;;;;;;;;5073044;28;20040;-92
2023/04/08 06:42:54;;;;;;;20.88;18.00;;;;;;;;;;5069499;28;20059;-92
2023/04/08 06:45:21;;;;;;;11.85;9.95;;;;;;;;;;5067460;28;20052;-92
2023/04/08 06:47:49;;;;;;;12.57;9.63;;;;;;;;;;5068320;28;20052;-92
2023/04/08 06:50:19;;;;;;;13.02;10.68;;;;;;;;;;5061898;28;20064;-93
2023/04/08 06:52:51;;;;;;;14.40;11.07;;;;;;;;;;5066613;28;20076;-93
2023/04/08 06:55:18;;;;;;;15.65;13.30;;;;;;;;;;5068624;28;20044;-92
2023/04/08 06:57:46;;;;;;;13.20;10.13;;;;;;;;;;5067933;28;20048;-93
2023/04/08 07:00:14;;;;;;;13.23;9.18;;;;;;;;;;5062995;28;20067;-92
2023/04/08 07:02:41;;;;;;;11.75;10.20;;;;;;;;;;5064789;28;20052;-92
2023/04/08 07:05:09;;;;;;;14.65;9.15;;;;;;;;;;5063674;28;20044;-92
2023/04/08 07:07:37;;;;;;;9.68;7.90;;;;;;;;;;5061579;28;20492;-92
2023/04/08 07:10:04;;;;;;;9.80;7.47;;;;;;;;;;5061614;28;20109;-92
2023/04/08 07:12:34;;;;;;;10.30;7.68;;;;;;;;;;5050222;28;20052;-92
2023/04/08 07:15:01;;;;;;;10.10;8.80;;;;;;;;;;5039872;28;20072;-91
2023/04/08 07:17:28;;;;;;;12.50;11.05;;;;;;;;;;5047348;28;20057;-91
2023/04/08 07:19:55;;;;;;;12.10;9.82;;;;;;;;;;5045638;28;20063;-91
2023/04/08 07:22:23;;;;;;;13.50;9.23;;;;;;;;;;5044572;28;20067;-92
2023/04/08 07:24:50;;;;;;;14.18;9.82;;;;;;;;;;5058275;28;20083;-92
2023/04/08 07:27:18;;;;;;;9.23;6.40;;;;;;;;;;5062454;28;20048;-93
2023/04/08 07:29:45;;;;;;;7.38;5.30;;;;;;;;;;5069302;28;20048;-92
2023/04/08 07:32:12;;;;;;;6.95;4.82;;;;;;;;;;5069209;28;20131;-92
2023/04/08 07:34:40;;;;;;;7.03;5.20;;;;;;;;;;5076649;28;20080;-92
2023/04/08 07:37:07;;;;;;;7.15;5.38;;;;;;;;;;5060625;28;20144;-92
2023/04/08 07:39:35;;;;;;;5.30;4.60;;;;;;;;;;5058487;28;20060;-93
2023/04/08 07:42:02;;;;;;;5.43;4.28;;;;;;;;;;5057074;28;20045;-91
2023/04/08 07:44:29;;;;;;;5.35;4.18;;;;;;;;;;5058231;28;20048;-93
2023/04/08 07:46:56;;;;;;;4.82;4.32;;;;;;;;;;5059949;28;20048;-91
2023/04/08 07:49:24;;;;;;;5.60;4.40;;;;;;;;;;5071993;28;20064;-92
2023/04/08 07:51:52;;;;;;;5.32;3.60;;;;;;;;;;5063260;28;20052;-92
2023/04/08 07:54:19;;;;;;;5.20;4.28;;;;;;;;;;5058513;28;20049;-92
2023/04/08 07:56:46;;;;;;;3.63;3.33;;;;;;;;;;5062550;28;20061;-92
2023/04/08 07:59:14;;;;;;;6.22;4.10;;;;;;;;;;5058961;28;20057;-93
2023/04/08 08:01:41;;;;;;;7.68;4.93;;;;;;;;;;5063144;28;20056;-92
2023/04/08 08:04:13;;;;;;;5.15;4.28;;;;;;;;;;5058286;28;20112;-92
2023/04/08 08:06:45;;;;;;;4.88;3.75;;;;;;;;;;5059101;28;20560;-93
2023/04/08 08:09:12;;;;;;;4.65;3.60;;;;;;;;;;5060162;28;20080;-92
2023/04/08 08:11:43;;;;;;;4.65;4.10;;;;;;;;;;5059174;28;20049;-92
2023/04/08 08:14:12;;;;;;;4.60;4.00;;;;;;;;;;5059379;28;20543;-93
2023/04/08 08:16:40;;;;;;;7.22;4.50;;;;;;;;;;5059278;28;20052;-93
2023/04/08 08:19:07;;;;;;;6.53;3.97;;;;;;;;;;5055162;28;20067;-94
2023/04/08 08:21:43;;;;;;;4.72;4.15;;;;;;;;;;5052426;28;20045;-92
2023/04/08 08:24:11;;;;;;;6.72;4.85;;;;;;;;;;5048878;28;20096;-91
2023/04/08 08:26:40;;;;;;;7.25;4.22;;;;;;;;;;5065255;28;20060;-93
2023/04/08 08:29:09;;;;;;;4.75;4.25;;;;;;;;;;5054624;28;20095;-93
2023/04/08 08:31:37;;;;;;;5.07;4.13;;;;;;;;;;5049718;28;20060;-92
2023/04/08 08:34:05;;;;;;;5.18;4.13;;;;;;;;;;5058943;28;20068;-92
2023/04/08 08:36:33;;;;;;;5.90;4.30;;;;;;;;;;5086741;28;20044;-93
2023/04/08 08:39:01;;;;;;;5.00;4.32;;;;;;;;;;5046555;28;20136;-92
2023/04/08 08:41:32;;;;;;;6.63;4.45;;;;;;;;;;5044896;28;20158;-92
2023/04/08 08:44:00;;;;;;;6.90;4.70;;;;;;;;;;5059096;28;20036;-93
2023/04/08 08:46:27;;;;;;;7.32;4.75;;;;;;;;;;5041820;28;20041;-92
2023/04/08 08:48:54;;;;;;;6.68;4.75;;;;;;;;;;5039236;28;20093;-92
2023/04/08 08:51:22;;;;;;;6.00;4.43;;;;;;;;;;5039845;28;20143;-92
2023/04/08 08:53:49;;;;;;;5.53;4.30;;;;;;;;;;5060946;28;20049;-92
2023/04/08 08:56:17;;;;;;;4.75;4.07;;;;;;;;;;5047306;28;20048;-92
2023/04/08 08:58:46;;;;;;;7.15;4.30;;;;;;;;;;5043187;28;20057;-92
2023/04/08 09:01:32;;;;;;;7.40;4.35;;;;;;;;;;5040601;28;20067;-92
2023/04/08 09:04:07;;;;;;;7.85;4.78;;;;;;;;;;5040297;28;20049;-91
2023/04/08 09:06:35;;;;;;;6.90;5.25;;;;;;;;;;5040589;28;20496;-93
2023/04/08 09:09:05;;;;;;;6.25;4.70;;;;;;;;;;5040237;28;20144;-92
2023/04/08 09:11:32;;;;;;;4.88;4.38;;;;;;;;;;5040333;28;20049;-92
2023/04/08 09:13:59;;;;;;;10.65;5.82;;;;;;;;;;5039940;28;20056;-92
2023/04/08 09:16:27;;;;;;;137.02;53.25;;;;;;;;;;5040225;28;20132;-93
2023/04/08 09:18:55;;;;;;;43.28;18.23;;;;;;;;;;5040296;28;20127;-92
2023/04/08 09:21:26;;;;;;;8.32;5.20;;;;;;;;;;5040372;28;20128;-93
2023/04/08 09:23:53;;;;;;;13.43;7.88;;;;;;;;;;5039802;28;20057;-92
2023/04/08 09:26:22;;;;;;;6.85;5.05;;;;;;;;;;5038759;28;20134;-92
2023/04/08 09:29:00;;;;;;;8.88;5.80;;;;;;;;;;5039912;28;20497;-92
2023/04/08 09:31:40;;;;;;;7.32;4.78;;;;;;;;;;5041770;28;20057;-92
2023/04/08 09:34:12;;;;;;;5.18;4.65;;;;;;;;;;5039844;28;20838;-92
2023/04/08 09:36:39;;;;;;;5.90;4.88;;;;;;;;;;5040400;28;20436;-93
2023/04/08 09:39:06;;;;;;;7.15;5.28;;;;;;;;;;5039886;28;20135;-93
2023/04/08 09:41:35;;;;;;;8.93;5.28;;;;;;;;;;5040167;28;20045;-92
2023/04/08 09:44:07;;;;;;;11.40;5.53;;;;;;;;;;5040495;28;20053;-93
2023/04/08 09:46:43;;;;;;;7.72;5.15;;;;;;;;;;5040114;28;20417;-92
2023/04/08 09:49:12;;;;;;;6.80;5.57;;;;;;;;;;5040666;28;20041;-92
2023/04/08 09:51:52;;;;;;;6.70;5.15;;;;;;;;;;5041536;28;20084;-93
2023/04/08 09:54:21;;;;;;;5.88;4.63;;;;;;;;;;5045811;28;20511;-93
2023/04/08 09:56:56;;;;;;;9.13;5.10;;;;;;;;;;5062585;28;20025;-91
2023/04/08 09:59:26;;;;;;;7.10;5.25;;;;;;;;;;5045859;28;20055;-92
2023/04/08 10:01:57;;;;;;;7.15;4.50;;;;;;;;;;5042769;28;20049;-92
2023/04/08 10:04:26;;;;;;;6.65;4.47;;;;;;;;;;5060690;28;20128;-91
2023/04/08 10:07:03;;;;;;;6.30;4.93;;;;;;;;;;5040255;28;20052;-93
2023/04/08 10:09:31;;;;;;;12.70;9.38;;;;;;;;;;5038655;28;20404;-92
2023/04/08 10:11:58;;;;;;;6.75;4.97;;;;;;;;;;5040644;28;20053;-93
2023/04/08 10:14:27;;;;;;;7.60;6.70;;;;;;;;;;5039793;28;20059;-93
2023/04/08 10:17:13;;;;;;;9.68;6.45;;;;;;;;;;5039308;28;20139;-93
2023/04/08 10:19:41;;;;;;;9.05;6.97;;;;;;;;;;5040891;28;20053;-94
2023/04/08 10:22:29;;;;;;;9.25;6.65;;;;;;;;;;5041410;28;20167;-93
2023/04/08 10:25:15;;;;;;;7.95;6.10;;;;;;;;;;5038991;28;20059;-93
2023/04/08 10:27:43;;;;;;;7.78;6.20;;;;;;;;;;5039034;28;20179;-93
2023/04/08 10:30:26;;;;;;;7.47;6.00;;;;;;;;;;5038640;28;20072;-93
2023/04/08 10:32:55;;;;;;;11.13;7.47;;;;;;;;;;5038690;28;20056;-94
2023/04/08 10:35:30;;;;;;;9.27;6.50;;;;;;;;;;5039178;28;20111;-94
2023/04/08 10:37:57;;;;;;;9.82;7.40;;;;;;;;;;5039722;28;20053;-93
2023/04/08 10:40:25;;;;;;;11.88;8.38;;;;;;;;;;5041907;28;20059;-95
2023/04/08 10:42:56;;;;;;;13.75;8.80;;;;;;;;;;5039807;28;20080;-93
2023/04/08 10:45:23;;;;;;;12.25;8.65;;;;;;;;;;5039065;28;20118;-94
2023/04/08 10:47:50;;;;;;;12.25;8.60;;;;;;;;;;5039907;28;20075;-93
2023/04/08 10:50:22;;;;;;;12.98;9.23;;;;;;;;;;5043608;28;20052;-95
2023/04/08 10:52:53;;;;;;;11.88;8.63;;;;;;;;;;5040404;28;20147;-94
2023/04/08 10:55:27;;;;;;;11.13;8.23;;;;;;;;;;5041966;28;20064;-94
2023/04/08 10:57:54;;;;;;;10.55;7.82;;;;;;;;;;5041266;28;20139;-94
2023/04/08 11:00:33;;;;;;;11.25;8.18;;;;;;;;;;5040992;28;20417;-94
2023/04/08 11:03:02;;;;;;;13.65;7.93;;;;;;;;;;5046215;28;20135;-94
2023/04/08 11:05:31;;;;;;;10.23;7.75;;;;;;;;;;5042516;28;20053;-93
2023/04/08 11:07:58;;;;;;;11.63;7.80;;;;;;;;;;5047433;28;20063;-94
2023/04/08 11:10:27;;;;;;;290.90;161.48;;;;;;;;;;5059632;28;20053;-93
2023/04/08 11:12:55;;;;;;;15.60;11.75;;;;;;;;;;5048048;28;20049;-94
2023/04/08 11:15:36;;;;;;;12.73;9.50;;;;;;;;;;5044770;28;20057;-93
2023/04/08 11:18:05;;;;;;;10.65;8.38;;;;;;;;;;5042413;28;20476;-95
2023/04/08 11:20:35;;;;;;;14.30;9.68;;;;;;;;;;5043603;28;20139;-95
2023/04/08 11:23:04;;;;;;;12.85;9.85;;;;;;;;;;5049641;28;20053;-94
2023/04/08 11:25:32;;;;;;;35.30;21.75;;;;;;;;;;5047415;28;20049;-94
2023/04/08 11:28:00;;;;;;;42.50;20.08;;;;;;;;;;5028417;28;20481;-95
2023/04/08 11:30:29;;;;;;;84.47;34.85;;;;;;;;;;5045138;28;20076;-94
2023/04/08 11:32:56;;;;;;;62.25;23.17;;;;;;;;;;5046598;28;20060;-95
2023/04/08 11:35:29;;;;;;;269.02;80.47;;;;;;;;;;5046996;28;20055;-95
2023/04/08 11:37:58;;;;;;;118.68;36.63;;;;;;;;;;5044601;28;20053;-94
2023/04/08 11:40:26;;;;;;;89.80;29.80;;;;;;;;;;5047368;28;20060;-96
2023/04/08 11:42:53;;;;;;;62.40;23.65;;;;;;;;;;5046194;28;20424;-95
2023/04/08 11:45:21;;;;;;;77.15;29.67;;;;;;;;;;5045049;28;20052;-95
2023/04/08 11:47:49;;;;;;;82.97;31.95;;;;;;;;;;5044888;28;20075;-94
2023/04/08 11:50:24;;;;;;;40.47;21.60;;;;;;;;;;5049032;28;20053;-96
2023/04/08 11:52:52;;;;;;;82.15;40.90;;;;;;;;;;5044767;28;20110;-96
2023/04/08 11:55:27;;;;;;;58.45;33.65;;;;;;;;;;5048532;28;20057;-94
2023/04/08 11:57:55;;;;;;;31.73;20.80;;;;;;;;;;5045388;28;20045;-94
2023/04/08 12:00:23;;;;;;;23.90;17.48;;;;;;;;;;5047576;28;20489;-96
2023/04/08 12:02:51;;;;;;;30.65;24.50;;;;;;;;;;5049912;28;20076;-93
2023/04/08 12:05:19;;;;;;;19.20;14.48;;;;;;;;;;5042661;28;20069;-94
2023/04/08 12:07:47;;;;;;;18.88;13.60;;;;;;;;;;5042547;28;20076;-95
2023/04/08 12:10:15;;;;;;;18.70;13.32;;;;;;;;;;5029108;28;20079;-96
2023/04/08 12:12:43;;;;;;;17.13;12.60;;;;;;;;;;5044275;28;20428;-96
2023/04/08 12:15:10;;;;;;;17.08;13.50;;;;;;;;;;5045485;28;20090;-94
2023/04/08 12:17:37;;;;;;;20.73;14.27;;;;;;;;;;5058708;28;20041;-94
2023/04/08 12:20:07;;;;;;;21.63;14.82;;;;;;;;;;5051789;28;20570;-92
2023/04/08 12:22:34;;;;;;;23.20;16.40;;;;;;;;;;5058095;28;20037;-93
2023/04/08 12:25:02;;;;;;;26.45;17.15;;;;;;;;;;5054221;28;20064;-93
2023/04/08 12:27:33;;;;;;;25.75;18.02;;;;;;;;;;5041233;28;20049;-95
2023/04/08 12:30:01;;;;;;;46.22;31.98;;;;;;;;;;5047840;28;20052;-95
2023/04/08 12:32:32;;;;;;;20.05;14.73;;;;;;;;;;5043601;28;20094;-93
2023/04/08 12:34:59;;;;;;;21.70;16.00;;;;;;;;;;5040906;28;20485;-94
2023/04/08 12:37:27;;;;;;;20.60;14.40;;;;;;;;;;5043330;28;20045;-94
2023/04/08 12:39:54;;;;;;;22.65;16.98;;;;;;;;;;5043383;28;20056;-94
2023/04/08 12:42:22;;;;;;;20.92;15.60;;;;;;;;;;5046872;28;20383;-94
2023/04/08 12:44:49;;;;;;;20.05;15.48;;;;;;;;;;5043537;28;20060;-94
2023/04/08 12:47:16;;;;;;;22.92;16.33;;;;;;;;;;5043802;28;20155;-95
2023/04/08 12:49:44;;;;;;;28.55;20.55;;;;;;;;;;5041231;28;20424;-94
2023/04/08 12:52:16;;;;;;;22.17;15.63;;;;;;;;;;5041476;28;20049;-93
2023/04/08 12:54:44;;;;;;;22.65;16.00;;;;;;;;;;5039335;28;20053;-95
2023/04/08 12:57:11;;;;;;;23.15;17.75;;;;;;;;;;5040470;28;20052;-94
2023/04/08 12:59:39;;;;;;;21.33;16.67;;;;;;;;;;5039971;28;20114;-94
2023/04/08 13:02:06;;;;;;;21.20;15.80;;;;;;;;;;5040514;28;20060;-96
2023/04/08 13:04:34;;;;;;;23.17;17.70;;;;;;;;;;5040478;28;20057;-94
2023/04/08 13:07:03;;;;;;;24.77;17.63;;;;;;;;;;5040357;28;20053;-94
2023/04/08 13:09:30;;;;;;;27.80;18.92;;;;;;;;;;5042779;28;20454;-94
2023/04/08 13:11:58;;;;;;;24.67;17.58;;;;;;;;;;5040661;28;20448;-94
2023/04/08 13:14:26;;;;;;;23.42;17.98;;;;;;;;;;5040333;28;20135;-94
2023/04/08 13:16:53;;;;;;;24.42;17.45;;;;;;;;;;5039209;28;20144;-95
2023/04/08 13:19:20;;;;;;;27.40;19.80;;;;;;;;;;5039170;28;20060;-94
2023/04/08 13:21:47;;;;;;;23.05;17.55;;;;;;;;;;5040918;28;20142;-95
2023/04/08 13:24:15;;;;;;;24.15;17.88;;;;;;;;;;5041612;28;20056;-96
2023/04/08 13:26:42;;;;;;;23.08;16.35;;;;;;;;;;5039430;28;20182;-94
2023/04/08 13:29:10;;;;;;;25.02;18.67;;;;;;;;;;5039294;28;20553;-96
2023/04/08 13:31:37;;;;;;;26.67;18.58;;;;;;;;;;5059994;28;20048;-96
2023/04/08 13:34:05;;;;;;;31.77;22.10;;;;;;;;;;5044757;28;20033;-95
2023/04/08 13:36:32;;;;;;;43.75;29.38;;;;;;;;;;5058493;28;20056;-93
2023/04/08 13:38:59;;;;;;;32.08;21.90;;;;;;;;;;5045221;28;20053;-94
2023/04/08 13:41:27;;;;;;;26.60;19.92;;;;;;;;;;5038810;28;20083;-94
2023/04/08 13:43:55;;;;;;;25.75;18.75;;;;;;;;;;5037884;28;20056;-95
2023/04/08 13:46:22;;;;;;;26.27;18.15;;;;;;;;;;5040545;28;20140;-96
2023/04/08 13:48:50;;;;;;;26.30;19.10;;;;;;;;;;5038622;28;20041;-94
2023/04/08 13:51:18;;;;;;;29.67;23.20;;;;;;;;;;5040218;28;20080;-94
2023/04/08 13:53:45;;;;;;;28.98;19.88;;;;;;;;;;5038531;28;20482;-95
2023/04/08 13:56:13;;;;;;;23.50;17.95;;;;;;;;;;5037666;28;20053;-95
2023/04/08 13:58:40;;;;;;;25.02;18.83;;;;;;;;;;5038267;28;20044;-96
2023/04/08 14:01:07;;;;;;;28.30;18.40;;;;;;;;;;5038729;28;20052;-95
2023/04/08 14:03:35;;;;;;;25.88;18.45;;;;;;;;;;5037385;28;20509;-94
2023/04/08 14:06:02;;;;;;;31.27;23.30;;;;;;;;;;5037799;28;20478;-94
2023/04/08 14:08:30;;;;;;;30.70;23.90;;;;;;;;;;5037791;28;20136;-95
2023/04/08 14:10:58;;;;;;;34.72;25.08;;;;;;;;;;5038120;28;20140;-96
2023/04/08 14:13:25;;;;;;;30.35;22.25;;;;;;;;;;5037910;28;20146;-95
2023/04/08 14:15:53;;;;;;;41.40;33.60;;;;;;;;;;5037660;28;20055;-95
2023/04/08 14:18:21;;;;;;;26.92;20.65;;;;;;;;;;5039252;28;20127;-96
2023/04/08 14:20:48;;;;;;;28.98;20.80;;;;;;;;;;5039028;28;20077;-96
2023/04/08 14:23:15;;;;;;;29.25;20.38;;;;;;;;;;5039258;28;20080;-96
2023/04/08 14:25:43;;;;;;;29.30;20.77;;;;;;;;;;5038246;28;20060;-96
2023/04/08 14:28:10;;;;;;;28.45;20.77;;;;;;;;;;5038387;28;20136;-93
2023/04/08 14:30:37;;;;;;;29.30;20.60;;;;;;;;;;5038520;28;20056;-96
2023/04/08 14:33:05;;;;;;;42.30;28.70;;;;;;;;;;5054209;28;20052;-94
2023/04/08 14:35:32;;;;;;;29.95;20.90;;;;;;;;;;5047249;28;20477;-94